Time;durP1;ratioP1;P1;durP2;ratioP2;P2;SDS_P1;SDS_P2;PMS_P1;PMS_P2;Temp;Humidity;BMP_temperature;BMP_pressure;BME280_temperature;BME280_humidity;BME280_pressure;Samples;Min_cycle;Max_cycle;Signal;HPM_P1;HPM_P2
2022/06/22 00:01:26;;;;;;;2.43;1.90;;;;;;;;;;4994725;28;20220;-76
2022/06/22 00:03:59;;;;;;;2.77;2.03;;;;;;;;;;5021265;28;20223;-76
2022/06/22 00:06:29;;;;;;;2.27;2.07;;;;;;;;;;4985679;28;20209;-76
2022/06/22 00:08:57;;;;;;;3.60;1.97;;;;;;;;;;5027199;28;20298;-76
2022/06/22 00:11:23;;;;;;;3.93;2.10;;;;;;;;;;4992374;28;20302;-76
2022/06/22 00:13:57;;;;;;;2.93;1.90;;;;;;;;;;4994344;28;20236;-77
2022/06/22 00:16:36;;;;;;;4.33;2.23;;;;;;;;;;5005988;28;20339;-76
2022/06/22 00:19:11;;;;;;;2.73;2.00;;;;;;;;;;4993839;28;20228;-76
2022/06/22 00:21:40;;;;;;;4.43;2.30;;;;;;;;;;4985233;28;20230;-76
2022/06/22 00:24:24;;;;;;;2.87;2.23;;;;;;;;;;5009510;28;20228;-76
2022/06/22 00:26:56;;;;;;;2.60;2.20;;;;;;;;;;5010630;28;20232;-76
2022/06/22 00:29:23;;;;;;;4.80;2.57;;;;;;;;;;5018707;28;20319;-76
2022/06/22 00:31:48;;;;;;;3.53;2.30;;;;;;;;;;4994788;28;20220;-75
2022/06/22 00:34:19;;;;;;;3.00;1.90;;;;;;;;;;5016440;28;20240;-76
2022/06/22 00:37:09;;;;;;;3.10;2.17;;;;;;;;;;5037587;28;20240;-75
2022/06/22 00:39:40;;;;;;;2.57;2.20;;;;;;;;;;5003979;28;20228;-74
2022/06/22 00:42:14;;;;;;;4.47;2.00;;;;;;;;;;4998095;28;20212;-74
2022/06/22 00:44:59;;;;;;;2.93;2.17;;;;;;;;;;5021961;28;20224;-75
2022/06/22 00:47:55;;;;;;;2.97;2.10;;;;;;;;;;5034485;28;20304;-76
2022/06/22 00:50:44;;;;;;;2.63;2.40;;;;;;;;;;5001965;28;20227;-74
2022/06/22 00:53:18;;;;;;;3.03;2.10;;;;;;;;;;5009687;28;20234;-74
2022/06/22 00:55:58;;;;;;;2.40;2.20;;;;;;;;;;5017387;28;20950;-74
2022/06/22 00:58:32;;;;;;;2.67;1.90;;;;;;;;;;5008219;28;20233;-74
2022/06/22 01:01:15;;;;;;;3.47;2.27;;;;;;;;;;4997915;28;20273;-74
2022/06/22 01:03:51;;;;;;;3.23;2.30;;;;;;;;;;5018519;28;20278;-74
2022/06/22 01:06:19;;;;;;;4.73;2.53;;;;;;;;;;4975332;28;20328;-74
2022/06/22 01:09:02;;;;;;;2.70;2.27;;;;;;;;;;5001705;28;20233;-74
2022/06/22 01:14:41;;;;;;;2.80;2.60;;;;;;;;;;5001799;28;20224;-74
2022/06/22 01:17:11;;;;;;;3.83;2.33;;;;;;;;;;5000700;28;20264;-74
2022/06/22 01:19:56;;;;;;;3.23;2.03;;;;;;;;;;4988755;28;20311;-75
2022/06/22 01:22:39;;;;;;;3.73;2.30;;;;;;;;;;5019081;28;20216;-73
2022/06/22 01:25:16;;;;;;;4.93;2.30;;;;;;;;;;5025069;28;20720;-76
2022/06/22 01:27:42;;;;;;;2.70;2.00;;;;;;;;;;5016246;28;20234;-74
2022/06/22 01:30:18;;;;;;;2.70;2.40;;;;;;;;;;4987412;28;20374;-75
2022/06/22 01:32:44;;;;;;;3.97;2.30;;;;;;;;;;5012508;28;20269;-76
2022/06/22 01:35:20;;;;;;;2.77;2.40;;;;;;;;;;4995028;28;20217;-74
2022/06/22 01:37:51;;;;;;;4.17;2.40;;;;;;;;;;5003344;28;20228;-73
2022/06/22 01:40:38;;;;;;;2.47;2.27;;;;;;;;;;5001141;28;20239;-74
2022/06/22 01:43:15;;;;;;;2.63;2.33;;;;;;;;;;5025107;28;20703;-74
2022/06/22 01:45:47;;;;;;;4.63;2.67;;;;;;;;;;4993909;28;20307;-74
2022/06/22 01:48:28;;;;;;;3.07;2.63;;;;;;;;;;5008169;28;20228;-74
2022/06/22 01:51:12;;;;;;;2.70;2.47;;;;;;;;;;4995491;28;20320;-74
2022/06/22 01:53:40;;;;;;;3.07;2.57;;;;;;;;;;5029959;28;20724;-75
2022/06/22 01:56:34;;;;;;;3.83;2.90;;;;;;;;;;4986273;28;20225;-74
2022/06/22 01:59:27;;;;;;;4.57;2.83;;;;;;;;;;5019774;28;20319;-74
2022/06/22 02:02:01;;;;;;;3.73;2.93;;;;;;;;;;5021098;28;20278;-75
2022/06/22 02:05:13;;;;;;;2.67;2.47;;;;;;;;;;5017092;28;20224;-74
2022/06/22 02:08:06;;;;;;;2.60;2.40;;;;;;;;;;5016290;28;21492;-74
2022/06/22 02:10:44;;;;;;;4.17;2.70;;;;;;;;;;5007438;28;20669;-75
2022/06/22 02:13:31;;;;;;;5.17;2.90;;;;;;;;;;4998631;28;20696;-74
2022/06/22 02:16:17;;;;;;;3.77;3.00;;;;;;;;;;5014895;28;20236;-75
2022/06/22 02:18:57;;;;;;;3.67;3.07;;;;;;;;;;4977374;28;20224;-75
2022/06/22 02:21:26;;;;;;;3.40;3.13;;;;;;;;;;5004859;28;20244;-75
2022/06/22 02:24:09;;;;;;;3.70;3.23;;;;;;;;;;5019566;28;20216;-76
2022/06/22 02:26:40;;;;;;;3.47;3.10;;;;;;;;;;5011987;28;20228;-76
2022/06/22 02:29:06;;;;;;;3.90;3.17;;;;;;;;;;5014882;28;20227;-75
2022/06/22 02:31:36;;;;;;;3.10;2.90;;;;;;;;;;4990869;28;20568;-75
2022/06/22 02:34:01;;;;;;;4.13;3.10;;;;;;;;;;4988715;28;20216;-76
2022/06/22 02:36:30;;;;;;;4.30;3.57;;;;;;;;;;4965554;28;20239;-74
2022/06/22 02:38:57;;;;;;;4.07;3.37;;;;;;;;;;5016680;28;20304;-75
2022/06/22 02:44:29;;;;;;;3.40;3.10;;;;;;;;;;4997845;28;20228;-75
2022/06/22 02:46:54;;;;;;;3.63;3.30;;;;;;;;;;4990150;28;20227;-76
2022/06/22 02:49:30;;;;;;;3.90;3.53;;;;;;;;;;5010053;28;20223;-74
2022/06/22 02:51:58;;;;;;;4.27;3.83;;;;;;;;;;4975389;28;20294;-75
2022/06/22 02:54:30;;;;;;;4.00;3.63;;;;;;;;;;5005006;28;20217;-75
2022/06/22 02:57:33;;;;;;;4.10;3.30;;;;;;;;;;5000084;28;20228;-76
2022/06/22 02:59:58;;;;;;;3.50;3.20;;;;;;;;;;5018408;28;20361;-76
2022/06/22 03:02:28;;;;;;;4.30;3.70;;;;;;;;;;5006442;28;20651;-76
2022/06/22 03:04:54;;;;;;;5.10;3.70;;;;;;;;;;4994469;28;20223;-76
2022/06/22 03:07:19;;;;;;;4.23;3.80;;;;;;;;;;4999572;28;20228;-75
2022/06/22 03:09:47;;;;;;;3.60;3.30;;;;;;;;;;4985052;28;20311;-76
2022/06/22 03:12:15;;;;;;;4.10;3.30;;;;;;;;;;4978297;28;20220;-75
2022/06/22 03:14:44;;;;;;;4.07;3.60;;;;;;;;;;4992773;28;20220;-77
2022/06/22 03:17:16;;;;;;;3.47;3.20;;;;;;;;;;5022494;28;20273;-76
2022/06/22 03:19:43;;;;;;;4.10;3.80;;;;;;;;;;4994478;28;20221;-76
2022/06/22 03:22:17;;;;;;;4.50;3.67;;;;;;;;;;5011045;28;20227;-75
2022/06/22 03:24:55;;;;;;;4.27;3.90;;;;;;;;;;4987448;28;20219;-74
2022/06/22 03:27:23;;;;;;;3.90;3.37;;;;;;;;;;5033088;28;20324;-75
2022/06/22 03:30:13;;;;;;;4.00;3.70;;;;;;;;;;4994992;28;20216;-74
2022/06/22 03:33:05;;;;;;;4.20;3.80;;;;;;;;;;5019156;28;20238;-75
2022/06/22 03:35:34;;;;;;;3.47;3.17;;;;;;;;;;5018483;28;20225;-74
2022/06/22 03:38:12;;;;;;;3.77;3.47;;;;;;;;;;4993264;28;20328;-74
2022/06/22 03:40:45;;;;;;;3.67;3.37;;;;;;;;;;5017532;28;20278;-74
2022/06/22 03:43:25;;;;;;;4.27;3.87;;;;;;;;;;4990579;28;20228;-74
2022/06/22 03:46:00;;;;;;;4.23;3.80;;;;;;;;;;5001176;28;20216;-75
2022/06/22 03:48:34;;;;;;;4.10;3.70;;;;;;;;;;4982983;28;20702;-74
2022/06/22 03:51:03;;;;;;;4.03;3.60;;;;;;;;;;4977607;28;20287;-73
2022/06/22 03:53:28;;;;;;;3.67;3.30;;;;;;;;;;5023803;28;20217;-75
2022/06/22 03:55:56;;;;;;;3.60;3.30;;;;;;;;;;5025516;28;20251;-74
2022/06/22 03:58:26;;;;;;;4.33;3.80;;;;;;;;;;5005116;28;20239;-74
2022/06/22 04:00:52;;;;;;;4.40;4.00;;;;;;;;;;4991571;28;20694;-74
2022/06/22 04:03:17;;;;;;;4.33;3.93;;;;;;;;;;5003726;28;20228;-74
2022/06/22 04:05:51;;;;;;;4.17;3.77;;;;;;;;;;4983294;28;20224;-73
2022/06/22 04:08:33;;;;;;;4.13;3.77;;;;;;;;;;4976155;28;20282;-73
2022/06/22 04:11:09;;;;;;;4.50;3.90;;;;;;;;;;4992538;28;20286;-74
2022/06/22 04:13:44;;;;;;;4.07;3.67;;;;;;;;;;4992710;28;20307;-74
2022/06/22 04:16:14;;;;;;;6.20;3.97;;;;;;;;;;5009595;28;20744;-74
2022/06/22 04:18:53;;;;;;;4.47;3.80;;;;;;;;;;4978947;28;20228;-75
2022/06/22 04:21:34;;;;;;;4.03;3.67;;;;;;;;;;5023716;28;20220;-76
2022/06/22 04:24:21;;;;;;;5.03;3.50;;;;;;;;;;5010944;28;20262;-76
2022/06/22 04:27:15;;;;;;;3.80;3.50;;;;;;;;;;4991948;28;20225;-75
2022/06/22 04:29:48;;;;;;;3.97;3.67;;;;;;;;;;5004720;28;20248;-75
2022/06/22 04:32:26;;;;;;;4.23;3.83;;;;;;;;;;4991425;28;20582;-75
2022/06/22 04:35:06;;;;;;;6.07;4.13;;;;;;;;;;5004610;28;20226;-74
2022/06/22 04:37:59;;;;;;;3.70;3.47;;;;;;;;;;5006082;28;20231;-75
2022/06/22 04:40:59;;;;;;;4.77;3.87;;;;;;;;;;5008563;28;20249;-75
2022/06/22 04:43:27;;;;;;;3.60;3.30;;;;;;;;;;5005277;28;20745;-74
2022/06/22 04:45:52;;;;;;;3.87;3.47;;;;;;;;;;5004058;28;20218;-77
2022/06/22 04:48:26;;;;;;;5.27;3.47;;;;;;;;;;4997224;28;20223;-76
2022/06/22 04:50:54;;;;;;;3.60;3.30;;;;;;;;;;4987963;28;20216;-74
2022/06/22 04:53:30;;;;;;;3.53;3.20;;;;;;;;;;4991632;28;20651;-72
2022/06/22 04:55:55;;;;;;;3.87;3.47;;;;;;;;;;4989047;28;20229;-73
2022/06/22 04:58:45;;;;;;;3.80;3.10;;;;;;;;;;4993981;28;20882;-73
2022/06/22 05:01:22;;;;;;;3.93;3.10;;;;;;;;;;4988465;28;20215;-74
2022/06/22 05:03:50;;;;;;;3.20;2.90;;;;;;;;;;5009237;28;20227;-74
2022/06/22 05:06:18;;;;;;;3.13;2.87;;;;;;;;;;5009404;28;20219;-73
2022/06/22 05:08:58;;;;;;;4.30;3.30;;;;;;;;;;4996663;28;20774;-75
2022/06/22 05:11:31;;;;;;;6.43;3.47;;;;;;;;;;4987281;28;20227;-74
2022/06/22 05:13:58;;;;;;;3.80;3.30;;;;;;;;;;4992726;28;20232;-73
2022/06/22 05:16:28;;;;;;;4.67;3.57;;;;;;;;;;5004772;28;20282;-76
2022/06/22 05:18:57;;;;;;;4.17;3.70;;;;;;;;;;4977247;28;20224;-76
2022/06/22 05:21:46;;;;;;;5.07;4.13;;;;;;;;;;5001467;28;20235;-77
2022/06/22 05:24:19;;;;;;;5.03;4.00;;;;;;;;;;5018144;28;20263;-76
2022/06/22 05:26:45;;;;;;;5.43;4.10;;;;;;;;;;5022577;28;20308;-76
2022/06/22 05:29:15;;;;;;;4.70;4.20;;;;;;;;;;5013795;28;20230;-75
2022/06/22 05:31:46;;;;;;;8.30;4.70;;;;;;;;;;5008246;28;20226;-75
2022/06/22 05:34:19;;;;;;;6.17;4.80;;;;;;;;;;4992040;28;20212;-75
2022/06/22 05:36:48;;;;;;;6.10;4.33;;;;;;;;;;5007129;28;20235;-74
2022/06/22 05:39:14;;;;;;;5.30;4.80;;;;;;;;;;4991325;28;20277;-75
2022/06/22 05:41:41;;;;;;;5.87;5.17;;;;;;;;;;5014335;28;20262;-73
2022/06/22 05:44:11;;;;;;;5.75;5.07;;;;;;;;;;5025878;28;20260;-75
2022/06/22 05:46:59;;;;;;;9.45;5.13;;;;;;;;;;5000536;28;20227;-74
2022/06/22 05:49:32;;;;;;;7.85;5.40;;;;;;;;;;4999011;28;20594;-75
2022/06/22 05:52:02;;;;;;;5.55;4.35;;;;;;;;;;5003182;28;20224;-75
2022/06/22 05:54:40;;;;;;;6.00;4.97;;;;;;;;;;5008322;28;20219;-73
2022/06/22 05:57:23;;;;;;;8.73;5.30;;;;;;;;;;5003402;28;20231;-76
2022/06/22 06:00:02;;;;;;;8.15;4.35;;;;;;;;;;5020115;28;20689;-76
2022/06/22 06:02:52;;;;;;;8.38;4.55;;;;;;;;;;5039630;28;20244;-77
2022/06/22 06:05:23;;;;;;;5.93;4.50;;;;;;;;;;5024922;28;20251;-75
2022/06/22 06:07:57;;;;;;;5.30;4.22;;;;;;;;;;4991140;28;20227;-76
2022/06/22 06:10:29;;;;;;;7.03;4.25;;;;;;;;;;5004910;28;20528;-80
2022/06/22 06:13:19;;;;;;;6.20;4.45;;;;;;;;;;5007768;28;20227;-77
2022/06/22 06:15:45;;;;;;;5.22;3.92;;;;;;;;;;5019420;28;20227;-76
2022/06/22 06:18:18;;;;;;;7.93;4.28;;;;;;;;;;5018458;28;20224;-75
2022/06/22 06:20:47;;;;;;;5.43;3.78;;;;;;;;;;4992992;28;20222;-77
2022/06/22 06:23:19;;;;;;;6.40;3.10;;;;;;;;;;5003103;28;20216;-77
2022/06/22 06:28:48;;;;;;;4.22;2.90;;;;;;;;;;5002323;28;20216;-74
2022/06/22 06:31:24;;;;;;;5.28;3.25;;;;;;;;;;5005911;28;20718;-76
2022/06/22 06:33:57;;;;;;;4.60;3.22;;;;;;;;;;4965703;28;20847;-76
2022/06/22 06:36:30;;;;;;;6.32;3.08;;;;;;;;;;5032598;28;20990;-77
2022/06/22 06:39:08;;;;;;;4.57;2.78;;;;;;;;;;4987530;28;20307;-74
2022/06/22 06:41:44;;;;;;;5.22;2.80;;;;;;;;;;5017434;28;20240;-75
2022/06/22 06:44:12;;;;;;;4.63;3.13;;;;;;;;;;5006308;28;20258;-74
2022/06/22 06:46:50;;;;;;;4.95;3.17;;;;;;;;;;4993051;28;20364;-78
2022/06/22 06:49:34;;;;;;;3.15;2.78;;;;;;;;;;4991230;28;20282;-75
2022/06/22 06:52:03;;;;;;;3.13;1.77;;;;;;;;;;5017011;28;20228;-75
2022/06/22 06:54:30;;;;;;;3.08;2.20;;;;;;;;;;5015514;28;20650;-75
2022/06/22 06:57:03;;;;;;;3.40;2.63;;;;;;;;;;4995467;28;20231;-75
2022/06/22 06:59:31;;;;;;;3.22;2.72;;;;;;;;;;5002332;28;20267;-75
2022/06/22 07:02:02;;;;;;;3.25;2.53;;;;;;;;;;4970534;28;20274;-75
2022/06/22 07:04:36;;;;;;;4.75;3.55;;;;;;;;;;5014712;28;20248;-76
2022/06/22 07:07:27;;;;;;;5.22;3.53;;;;;;;;;;5008496;28;20235;-73
2022/06/22 07:10:05;;;;;;;4.22;2.30;;;;;;;;;;5010064;28;20216;-77
2022/06/22 07:12:40;;;;;;;3.13;2.30;;;;;;;;;;4989896;28;20220;-76
2022/06/22 07:15:17;;;;;;;3.55;1.90;;;;;;;;;;4979584;28;20223;-76
2022/06/22 07:17:47;;;;;;;4.75;2.00;;;;;;;;;;4946219;28;20248;-77
2022/06/22 07:20:26;;;;;;;3.33;1.90;;;;;;;;;;5006430;28;20228;-75
2022/06/22 07:22:59;;;;;;;1.50;1.40;;;;;;;;;;4982239;28;20231;-74
2022/06/22 07:25:30;;;;;;;2.80;1.90;;;;;;;;;;5008242;28;20706;-74
2022/06/22 07:28:12;;;;;;;2.00;1.52;;;;;;;;;;4998014;28;20230;-78
2022/06/22 07:31:35;;;;;;;1.95;1.50;;;;;;;;;;5025928;28;20764;-77
2022/06/22 07:34:07;;;;;;;2.28;1.85;;;;;;;;;;5006849;28;20231;-75
2022/06/22 07:36:47;;;;;;;2.60;2.00;;;;;;;;;;5014732;28;20237;-77
2022/06/22 07:39:24;;;;;;;3.22;1.90;;;;;;;;;;5039524;28;20226;-76
2022/06/22 07:41:50;;;;;;;4.97;1.60;;;;;;;;;;5005778;28;20306;-77
2022/06/22 07:44:18;;;;;;;3.28;1.58;;;;;;;;;;5034025;28;20631;-78
2022/06/22 07:47:01;;;;;;;1.48;1.20;;;;;;;;;;4993221;28;20216;-75
2022/06/22 07:49:58;;;;;;;3.55;1.77;;;;;;;;;;5037437;28;20247;-75
2022/06/22 07:52:27;;;;;;;2.65;1.52;;;;;;;;;;5007455;28;20229;-75
2022/06/22 07:55:07;;;;;;;3.30;1.55;;;;;;;;;;4996845;28;20624;-74
2022/06/22 07:57:56;;;;;;;2.30;1.50;;;;;;;;;;5011232;28;20234;-75
2022/06/22 08:00:22;;;;;;;1.90;1.20;;;;;;;;;;5025353;28;20323;-73
2022/06/22 08:02:58;;;;;;;3.20;1.00;;;;;;;;;;5012303;28;20243;-74
2022/06/22 08:05:28;;;;;;;2.03;1.17;;;;;;;;;;5012278;28;20220;-74
2022/06/22 08:08:02;;;;;;;2.33;1.00;;;;;;;;;;5024135;28;20246;-74
2022/06/22 08:10:47;;;;;;;2.22;1.00;;;;;;;;;;5022517;28;20220;-74
2022/06/22 08:13:25;;;;;;;1.40;1.10;;;;;;;;;;5042124;28;20223;-74
2022/06/22 08:16:05;;;;;;;1.92;1.15;;;;;;;;;;4999068;28;20231;-74
2022/06/22 08:18:32;;;;;;;1.80;1.10;;;;;;;;;;4992355;28;20216;-73
2022/06/22 08:20:58;;;;;;;3.13;1.08;;;;;;;;;;5022367;28;20223;-72
2022/06/22 08:23:30;;;;;;;1.73;1.05;;;;;;;;;;5026343;28;20226;-71
2022/06/22 08:25:56;;;;;;;2.30;0.85;;;;;;;;;;5029070;28;20223;-74
2022/06/22 08:28:24;;;;;;;1.00;0.90;;;;;;;;;;5035768;28;20367;-74
2022/06/22 08:30:53;;;;;;;1.02;0.90;;;;;;;;;;5014150;28;20255;-75
2022/06/22 08:33:25;;;;;;;2.03;1.00;;;;;;;;;;5022150;28;20255;-74
2022/06/22 08:35:52;;;;;;;1.77;0.80;;;;;;;;;;5008626;28;20219;-72
2022/06/22 08:38:29;;;;;;;1.40;1.15;;;;;;;;;;5021701;28;20296;-74
2022/06/22 08:41:04;;;;;;;1.67;1.00;;;;;;;;;;5024516;28;20227;-73
2022/06/22 08:43:46;;;;;;;1.27;1.13;;;;;;;;;;5037869;28;20226;-73
2022/06/22 08:47:00;;;;;;;3.38;1.27;;;;;;;;;;5039036;28;20215;-74
2022/06/22 08:49:46;;;;;;;2.88;1.40;;;;;;;;;;5033371;28;20232;-74
2022/06/22 08:52:26;;;;;;;1.73;1.05;;;;;;;;;;5040955;28;20247;-73
2022/06/22 08:55:23;;;;;;;3.10;1.27;;;;;;;;;;5039596;28;20852;-73
2022/06/22 08:58:05;;;;;;;2.67;1.20;;;;;;;;;;5008551;28;20231;-75
2022/06/22 09:01:18;;;;;;;0.98;0.82;;;;;;;;;;5034815;28;20253;-75
2022/06/22 09:04:07;;;;;;;1.58;1.00;;;;;;;;;;4969350;28;20731;-74
2022/06/22 09:06:33;;;;;;;1.58;1.08;;;;;;;;;;4936993;28;20280;-74
2022/06/22 09:09:17;;;;;;;1.63;1.10;;;;;;;;;;5000487;28;20234;-75
2022/06/22 09:12:05;;;;;;;2.15;1.10;;;;;;;;;;5019035;28;20224;-74
2022/06/22 09:14:57;;;;;;;2.85;1.20;;;;;;;;;;5020521;28;20641;-75
2022/06/22 09:17:49;;;;;;;2.05;1.10;;;;;;;;;;5018008;28;20264;-77
2022/06/22 09:20:46;;;;;;;1.55;1.10;;;;;;;;;;5005884;28;20228;-75
2022/06/22 09:23:28;;;;;;;1.30;0.98;;;;;;;;;;4989868;28;21063;-76
2022/06/22 09:26:29;;;;;;;1.55;0.85;;;;;;;;;;4992725;28;20265;-75
2022/06/22 09:36:48;;;;;;;0.80;0.60;;;;;;;;;;5054627;28;20292;-80
2022/06/22 09:39:24;;;;;;;1.33;0.85;;;;;;;;;;5044268;28;20774;-79
2022/06/22 09:42:02;;;;;;;1.02;0.63;;;;;;;;;;5015416;28;20228;-79
2022/06/22 09:44:54;;;;;;;0.77;0.77;;;;;;;;;;5012337;28;20232;-79
2022/06/22 09:47:32;;;;;;;0.70;0.70;;;;;;;;;;5021526;28;20215;-80
2022/06/22 09:50:07;;;;;;;0.85;0.63;;;;;;;;;;5038303;28;20393;-79
2022/06/22 09:52:35;;;;;;;0.70;0.70;;;;;;;;;;5058901;28;20230;-81
2022/06/22 09:58:23;;;;;;;0.32;0.32;;;;;;;;;;5046416;28;20228;-82
2022/06/22 10:01:13;;;;;;;0.40;0.32;;;;;;;;;;5038288;28;20220;-81
2022/06/22 10:07:12;;;;;;;0.93;0.60;;;;;;;;;;5054591;28;20468;-82
2022/06/22 10:10:03;;;;;;;0.63;0.60;;;;;;;;;;5039467;28;20361;-81
2022/06/22 10:12:37;;;;;;;1.70;0.70;;;;;;;;;;5044531;28;20228;-83
2022/06/22 10:15:09;;;;;;;2.92;0.60;;;;;;;;;;5048522;28;20246;-80
2022/06/22 10:18:11;;;;;;;0.50;0.50;;;;;;;;;;5034413;28;20231;-81
2022/06/22 10:21:04;;;;;;;2.40;0.70;;;;;;;;;;5034886;28;20239;-81
2022/06/22 10:23:40;;;;;;;1.23;0.63;;;;;;;;;;5046005;28;20226;-83
2022/06/22 10:26:36;;;;;;;1.50;0.73;;;;;;;;;;5037353;28;20228;-80
2022/06/22 10:29:20;;;;;;;0.70;0.68;;;;;;;;;;5065217;28;20227;-81
2022/06/22 10:32:04;;;;;;;1.67;0.70;;;;;;;;;;5044036;28;20283;-82
2022/06/22 10:34:32;;;;;;;0.70;0.60;;;;;;;;;;5011077;28;20274;-81
2022/06/22 10:46:33;;;;;;;1.23;0.93;;;;;;;;;;4967172;28;20312;-75
2022/06/22 10:49:30;;;;;;;1.30;0.77;;;;;;;;;;4961811;28;20348;-76
2022/06/22 10:52:37;;;;;;;1.08;0.88;;;;;;;;;;4956632;28;20249;-75
2022/06/22 10:55:38;;;;;;;0.82;0.82;;;;;;;;;;4979699;28;20525;-75
2022/06/22 10:58:19;;;;;;;1.15;0.98;;;;;;;;;;4987951;28;20268;-76
2022/06/22 11:01:11;;;;;;;1.85;1.10;;;;;;;;;;4990393;28;20591;-73
2022/06/22 11:03:52;;;;;;;1.33;1.08;;;;;;;;;;4969149;28;20240;-74
2022/06/22 11:06:38;;;;;;;2.88;1.10;;;;;;;;;;4989660;28;20308;-72
2022/06/22 11:09:28;;;;;;;1.67;1.15;;;;;;;;;;4989252;28;20605;-72
2022/06/22 11:12:12;;;;;;;1.83;1.20;;;;;;;;;;4984394;28;20280;-76
2022/06/22 11:15:18;;;;;;;3.35;1.00;;;;;;;;;;5003549;28;20228;-78
2022/06/22 11:18:08;;;;;;;3.28;1.42;;;;;;;;;;5013945;28;20724;-76
2022/06/22 11:20:45;;;;;;;2.20;1.30;;;;;;;;;;4990219;28;20229;-76
2022/06/22 11:23:21;;;;;;;2.50;1.48;;;;;;;;;;4977559;28;20664;-73
2022/06/22 11:31:47;;;;;;;1.45;1.23;;;;;;;;;;4983332;28;20241;-74
2022/06/22 11:34:32;;;;;;;1.40;1.23;;;;;;;;;;4972846;28;20245;-74
2022/06/22 11:37:23;;;;;;;2.65;1.23;;;;;;;;;;4972934;28;20308;-75
2022/06/22 11:40:02;;;;;;;5.80;1.30;;;;;;;;;;4969347;28;20217;-75
2022/06/22 11:42:59;;;;;;;1.23;1.13;;;;;;;;;;4936254;28;20236;-74
2022/06/22 11:45:54;;;;;;;1.83;1.00;;;;;;;;;;4988217;28;20228;-75
2022/06/22 11:48:56;;;;;;;1.35;1.10;;;;;;;;;;4988706;28;20271;-75
2022/06/22 11:51:38;;;;;;;1.75;1.23;;;;;;;;;;4988169;28;25842;-74
2022/06/22 11:54:24;;;;;;;1.52;1.10;;;;;;;;;;4966590;28;20218;-73
2022/06/22 11:56:55;;;;;;;1.50;1.20;;;;;;;;;;4973576;28;20323;-72
2022/06/22 11:59:46;;;;;;;1.90;1.23;;;;;;;;;;4985609;28;20692;-76
2022/06/22 12:02:33;;;;;;;2.90;1.27;;;;;;;;;;4971930;28;20217;-75
2022/06/22 12:05:36;;;;;;;3.35;1.20;;;;;;;;;;4979058;28;20221;-75
2022/06/22 12:08:27;;;;;;;1.20;1.10;;;;;;;;;;4979912;28;20233;-74
2022/06/22 12:11:12;;;;;;;1.70;1.20;;;;;;;;;;4973545;28;20245;-75
2022/06/22 12:16:56;;;;;;;1.73;1.35;;;;;;;;;;5008780;28;20241;-74
2022/06/22 12:19:55;;;;;;;3.10;1.30;;;;;;;;;;4972954;28;20344;-75
2022/06/22 12:22:42;;;;;;;2.63;1.20;;;;;;;;;;4992013;28;20336;-76
2022/06/22 12:25:15;;;;;;;1.77;1.20;;;;;;;;;;4988161;28;20225;-76
2022/06/22 12:27:51;;;;;;;2.42;1.15;;;;;;;;;;4992995;28;20241;-75
2022/06/22 12:30:40;;;;;;;4.07;1.40;;;;;;;;;;4992528;28;20335;-76
2022/06/22 12:33:19;;;;;;;1.92;1.05;;;;;;;;;;4990994;28;20283;-76
2022/06/22 12:36:01;;;;;;;1.33;1.23;;;;;;;;;;4977197;28;20270;-78
2022/06/22 12:38:36;;;;;;;1.83;1.20;;;;;;;;;;4987672;28;20229;-78
2022/06/22 12:41:20;;;;;;;2.60;1.05;;;;;;;;;;4982622;28;20237;-78
2022/06/22 12:44:13;;;;;;;2.40;1.10;;;;;;;;;;4994015;28;20236;-76
2022/06/22 12:46:50;;;;;;;3.13;1.40;;;;;;;;;;5007252;28;20225;-76
2022/06/22 12:49:34;;;;;;;1.38;1.10;;;;;;;;;;5006921;28;20232;-77
2022/06/22 12:52:03;;;;;;;1.33;1.20;;;;;;;;;;4998548;28;20604;-76
2022/06/22 12:54:36;;;;;;;1.98;1.10;;;;;;;;;;5009553;28;20363;-77
2022/06/22 12:57:09;;;;;;;1.55;1.10;;;;;;;;;;4997292;28;20237;-77
2022/06/22 13:00:13;;;;;;;2.58;1.40;;;;;;;;;;5004844;28;20286;-78
2022/06/22 13:02:40;;;;;;;1.30;1.20;;;;;;;;;;4965346;28;20283;-77
2022/06/22 13:05:19;;;;;;;2.13;1.17;;;;;;;;;;4988860;28;20284;-77
2022/06/22 13:07:50;;;;;;;1.73;1.20;;;;;;;;;;4954259;28;20222;-78
2022/06/22 13:10:19;;;;;;;1.45;1.00;;;;;;;;;;4987418;28;20232;-77
2022/06/22 13:13:01;;;;;;;2.40;1.38;;;;;;;;;;4954081;28;20209;-78
2022/06/22 13:15:35;;;;;;;1.45;1.30;;;;;;;;;;4971623;28;20232;-79
2022/06/22 13:18:27;;;;;;;2.53;1.15;;;;;;;;;;4996537;28;20265;-77
2022/06/22 13:21:17;;;;;;;3.00;1.20;;;;;;;;;;4986951;28;20229;-76
2022/06/22 13:24:19;;;;;;;2.33;1.15;;;;;;;;;;4972155;28;20241;-76
2022/06/22 13:27:02;;;;;;;2.53;1.23;;;;;;;;;;4986801;28;20228;-76
2022/06/22 13:29:48;;;;;;;1.75;1.30;;;;;;;;;;4988081;28;20229;-77
2022/06/22 13:32:17;;;;;;;1.73;1.20;;;;;;;;;;5003495;28;20230;-76
2022/06/22 13:34:48;;;;;;;1.20;1.10;;;;;;;;;;4956275;28;20264;-75
2022/06/22 13:37:44;;;;;;;3.83;1.33;;;;;;;;;;4972043;28;20233;-77
2022/06/22 13:40:26;;;;;;;2.33;1.27;;;;;;;;;;5004257;28;20236;-76
2022/06/22 13:43:27;;;;;;;2.05;1.52;;;;;;;;;;4973897;28;20221;-77
2022/06/22 13:46:08;;;;;;;2.10;1.30;;;;;;;;;;4988844;28;20615;-76
2022/06/22 13:49:01;;;;;;;1.33;1.23;;;;;;;;;;4999152;28;20224;-78
2022/06/22 13:51:51;;;;;;;3.28;1.35;;;;;;;;;;4988048;28;20232;-77
2022/06/22 13:54:27;;;;;;;1.70;1.40;;;;;;;;;;4975438;28;20613;-76
2022/06/22 13:57:19;;;;;;;1.73;1.20;;;;;;;;;;4971351;28;20229;-78
2022/06/22 14:00:06;;;;;;;3.38;1.30;;;;;;;;;;4976517;28;20230;-77
2022/06/22 14:02:34;;;;;;;3.70;1.80;;;;;;;;;;4950515;28;20262;-77
2022/06/22 14:05:24;;;;;;;2.47;1.60;;;;;;;;;;4988972;28;20747;-77
2022/06/22 14:08:10;;;;;;;3.28;1.60;;;;;;;;;;4985293;28;20226;-78
2022/06/22 14:10:50;;;;;;;1.40;1.30;;;;;;;;;;5005805;28;20248;-78
2022/06/22 14:13:33;;;;;;;2.53;1.50;;;;;;;;;;5008811;28;20661;-77
2022/06/22 14:16:18;;;;;;;2.22;1.50;;;;;;;;;;4997511;28;20225;-77
2022/06/22 14:18:54;;;;;;;2.33;1.50;;;;;;;;;;5001240;28;20785;-78
2022/06/22 14:21:46;;;;;;;1.77;1.30;;;;;;;;;;4982418;28;21007;-78
2022/06/22 14:24:19;;;;;;;2.28;1.27;;;;;;;;;;4995300;28;20225;-79
2022/06/22 14:27:23;;;;;;;1.70;1.30;;;;;;;;;;4996244;28;20220;-79
2022/06/22 14:30:20;;;;;;;3.05;1.48;;;;;;;;;;4983176;28;20256;-79
2022/06/22 14:33:16;;;;;;;2.17;1.60;;;;;;;;;;4974325;28;20233;-77
2022/06/22 14:36:28;;;;;;;3.47;1.63;;;;;;;;;;4965984;28;20229;-77
2022/06/22 14:39:15;;;;;;;2.88;1.50;;;;;;;;;;5009380;28;20236;-77
2022/06/22 14:41:53;;;;;;;2.70;1.50;;;;;;;;;;4955241;28;20232;-77
2022/06/22 14:44:32;;;;;;;2.22;1.40;;;;;;;;;;4992113;28;20217;-79
2022/06/22 14:47:10;;;;;;;4.90;1.70;;;;;;;;;;4983079;28;20225;-76
2022/06/22 14:49:53;;;;;;;1.98;1.50;;;;;;;;;;4988657;28;20770;-77
2022/06/22 14:52:35;;;;;;;3.80;1.80;;;;;;;;;;4988517;28;20261;-77
2022/06/22 14:55:26;;;;;;;3.97;1.70;;;;;;;;;;4986741;28;20221;-77
2022/06/22 14:58:02;;;;;;;1.90;1.50;;;;;;;;;;4987937;28;20595;-77
2022/06/22 15:01:00;;;;;;;4.18;1.70;;;;;;;;;;4994380;28;20253;-77
2022/06/22 15:03:50;;;;;;;4.80;1.60;;;;;;;;;;4975774;28;20579;-75
2022/06/22 15:06:22;;;;;;;4.75;2.20;;;;;;;;;;4988870;28;20232;-77
2022/06/22 15:09:06;;;;;;;3.03;1.60;;;;;;;;;;4973943;28;20222;-75
2022/06/22 15:14:58;;;;;;;2.42;1.58;;;;;;;;;;4981756;28;20309;-75
2022/06/22 15:17:33;;;;;;;3.67;2.00;;;;;;;;;;4997440;28;20258;-77
2022/06/22 15:20:22;;;;;;;2.05;1.63;;;;;;;;;;5007431;28;20832;-77
2022/06/22 15:23:26;;;;;;;2.55;1.75;;;;;;;;;;4990818;28;20225;-77
2022/06/22 15:26:33;;;;;;;4.20;1.70;;;;;;;;;;4925179;29;20382;-77
2022/06/22 15:29:11;;;;;;;2.67;1.85;;;;;;;;;;4896532;29;20749;-78
2022/06/22 15:31:52;;;;;;;2.65;1.60;;;;;;;;;;4969084;28;20241;-79
2022/06/22 15:34:27;;;;;;;3.25;1.80;;;;;;;;;;4977320;28;20301;-78
2022/06/22 15:37:30;;;;;;;3.53;1.73;;;;;;;;;;5000442;28;20754;-76
2022/06/22 15:40:22;;;;;;;5.32;1.92;;;;;;;;;;4986240;28;20213;-78
2022/06/22 15:42:49;;;;;;;4.85;2.10;;;;;;;;;;5019709;28;20217;-76
2022/06/22 15:45:33;;;;;;;2.78;1.50;;;;;;;;;;5009445;28;20240;-76
2022/06/22 15:48:05;;;;;;;2.08;1.50;;;;;;;;;;5016792;28;20232;-75
2022/06/22 15:50:50;;;;;;;3.30;1.70;;;;;;;;;;4995492;28;20275;-76
2022/06/22 15:53:46;;;;;;;2.70;1.80;;;;;;;;;;4994966;28;20307;-77
2022/06/22 15:56:29;;;;;;;4.45;1.60;;;;;;;;;;5011221;28;20213;-76
2022/06/22 15:59:05;;;;;;;2.80;1.83;;;;;;;;;;4994622;28;20725;-77
2022/06/22 16:01:54;;;;;;;2.40;1.73;;;;;;;;;;4975282;28;20229;-77
2022/06/22 16:04:27;;;;;;;4.00;1.80;;;;;;;;;;4985889;28;20245;-75
2022/06/22 16:07:11;;;;;;;4.00;2.08;;;;;;;;;;4974113;28;20224;-77
2022/06/22 16:09:38;;;;;;;2.78;1.60;;;;;;;;;;4974896;28;20260;-78
2022/06/22 16:15:23;;;;;;;1.85;1.60;;;;;;;;;;5003803;28;20224;-77
2022/06/22 16:18:09;;;;;;;2.95;1.80;;;;;;;;;;4970025;28;20226;-78
2022/06/22 16:20:51;;;;;;;2.90;2.10;;;;;;;;;;4966424;28;20221;-77
2022/06/22 16:23:23;;;;;;;2.88;1.80;;;;;;;;;;4991047;28;20225;-77
2022/06/22 16:25:53;;;;;;;2.97;1.92;;;;;;;;;;4992247;28;20228;-78
2022/06/22 16:28:24;;;;;;;2.65;1.65;;;;;;;;;;4991122;28;20296;-77
2022/06/22 16:31:04;;;;;;;3.10;1.75;;;;;;;;;;4992167;28;20216;-77
2022/06/22 16:34:06;;;;;;;3.03;1.60;;;;;;;;;;4992305;28;20319;-78
2022/06/22 16:36:40;;;;;;;4.13;1.65;;;;;;;;;;4983701;28;20321;-79
2022/06/22 16:39:16;;;;;;;3.83;1.95;;;;;;;;;;4963709;28;20229;-79
2022/06/22 16:41:48;;;;;;;2.60;2.20;;;;;;;;;;4988463;28;20598;-78
2022/06/22 16:44:33;;;;;;;3.40;1.90;;;;;;;;;;4975048;28;20221;-78